Latest Weather Observations for Jimna

IDQ60901

Issued at 2:15 pm EST Monday 20 October 2014 (issued every 10 minutes, with the page automatically refreshed every 10 minutes)

About weather observations | Map of Brisbane area stations | Latest observations for Brisbane area | Other Formats
Station Details ID: 040651 Name: JIMNA FORESTRY Lat: -26.66 Lon: 152.46 Height: 523.0 m
Data from the previous 72 hours. | See also: Recent months at Jimna
Date/Time
EST
Tmp

°C
App
Tmp
°C
Dew
Point
°C
Rel
Hum
%
Delta-T

°C
Wind Press
QNH
hPa
Press
MSL
hPa
Rain
since
9 am
mm
Dir
 
Spd
km/h
Gust
km/h
Spd
kts
Gust
kts
20/02:00pm 27.2 - 4.9 24 11.7 - - - - - - - 0.0
20/01:30pm 26.6 - 5.5 26 11.1 - - - - - - - 0.0
20/01:00pm 26.6 - 6.1 27 10.9 - - - - - - - 0.0
20/12:30pm 25.6 - 4.7 26 10.8 - - - - - - - 0.0
20/12:00pm 25.0 - 4.7 27 10.4 - - - - - - - 0.0
20/11:30am 24.7 - 5.5 29 10.0 - - - - - - - 0.0
20/11:00am 24.0 - 4.9 29 9.8 - - - - - - - 0.0
20/10:30am 23.2 - 6.0 33 9.0 - - - - - - - 0.0
20/10:00am 22.3 - 6.9 37 8.1 - - - - - - - 0.0
20/09:30am 21.3 - 8.2 43 7.0 - - - - - - - 0.0
20/09:00am 20.5 - 9.1 48 6.2 - - - - - - - 0.0
20/08:30am 19.9 - 9.2 50 5.8 - - - - - - - 0.0
20/08:00am 18.4 - 10.5 60 4.4 - - - - - - - 0.0
20/07:30am 16.9 - 10.1 64 3.7 - - - - - - - 0.0
20/07:00am 14.0 - 10.6 80 1.8 - - - - - - - 0.0
20/06:30am 10.8 - 9.2 90 0.8 - - - - - - - 0.0
20/06:00am 8.1 - 6.9 92 0.6 - - - - - - - 0.0
20/05:30am 7.5 - 6.1 91 0.7 - - - - - - - 0.0
20/05:00am 7.8 - 6.4 91 0.7 - - - - - - - 0.0
20/04:30am 8.2 - 6.8 91 0.7 - - - - - - - 0.0
20/04:00am 8.4 - 6.9 90 0.7 - - - - - - - 0.0
20/03:30am 8.8 - 7.3 90 0.7 - - - - - - - 0.0
20/03:00am 9.0 - 7.5 90 0.7 - - - - - - - 0.0
20/02:30am 9.4 - 7.7 89 0.8 - - - - - - - 0.0
20/02:00am 9.9 - 7.8 87 1.0 - - - - - - - 0.0
20/01:30am 11.1 - 9.0 87 1.1 - - - - - - - 0.0
20/01:00am 11.3 - 8.9 85 1.2 - - - - - - - 0.0
20/12:30am 12.0 - 9.4 84 1.3 - - - - - - - 0.0
20/12:00am 13.0 - 9.8 81 1.7 - - - - - - - 0.0
 
Date/Time
EST
Tmp

°C
App
Tmp
°C
Dew
Point
°C
Rel
Hum
%
Delta-T

°C
Wind Press
QNH
hPa
Press
MSL
hPa
Rain
since
9 am
mm
Dir
 
Spd
km/h
Gust
km/h
Spd
kts
Gust
kts
19/11:30pm 13.6 - 10.2 80 1.8 - - - - - - - 0.0
19/11:00pm 13.8 - 10.2 79 1.9 - - - - - - - 0.0
19/10:30pm 14.2 - 10.6 79 1.9 - - - - - - - 0.0
19/10:00pm 14.4 - 10.8 79 2.0 - - - - - - - 0.0
19/09:30pm 14.5 - 10.9 79 2.0 - - - - - - - 0.0
19/09:00pm 14.8 - 10.8 77 2.2 - - - - - - - 0.0
19/08:30pm 14.9 - 10.7 76 2.3 - - - - - - - 0.0
19/08:00pm 15.1 - 10.7 75 2.4 - - - - - - - 0.0
19/07:30pm 15.6 - 11.0 74 2.5 - - - - - - - 0.0
19/07:00pm 16.1 - 11.3 73 2.7 - - - - - - - 0.0
19/06:30pm 16.8 - 11.5 71 2.9 - - - - - - - 0.0
19/06:00pm 17.9 - 11.2 65 3.7 - - - - - - - 0.0
19/05:30pm 19.2 - 9.9 55 5.1 - - - - - - - 0.0
19/05:00pm 20.1 - 8.8 48 6.1 - - - - - - - 0.0
19/04:30pm 21.2 - 7.8 42 7.1 - - - - - - - 0.0
19/04:00pm 22.2 - 7.6 39 7.8 - - - - - - - 0.0
19/03:30pm 22.2 - 5.6 34 8.5 - - - - - - - 0.0
19/03:00pm 22.9 - 5.8 33 8.9 - - - - - - - 0.0
19/02:30pm 22.9 - 6.6 35 8.6 - - - - - - - 0.0
19/02:00pm 23.2 - 6.5 34 8.8 - - - - - - - 0.0
19/01:30pm 23.9 - 7.9 36 8.7 - - - - - - - 0.0
19/01:00pm 22.9 - 7.0 36 8.4 - - - - - - - 0.0
19/12:30pm 22.6 - 7.2 37 8.2 - - - - - - - 0.0
19/12:00pm 21.8 - 8.0 41 7.4 - - - - - - - 0.0
19/11:30am 22.6 - 8.7 41 7.6 - - - - - - - 0.0
19/11:00am 21.4 - 9.3 46 6.6 - - - - - - - 0.0
19/10:30am 20.6 - 8.6 46 6.5 - - - - - - - 0.0
19/10:00am 21.1 - 8.7 45 6.7 - - - - - - - 0.0
19/09:30am 19.8 - 8.8 49 5.9 - - - - - - - 0.0
19/09:00am 19.6 - 10.0 54 5.3 - - - - - - - 0.0
19/08:30am 18.0 - 9.4 57 4.6 - - - - - - - 0.0
19/08:00am 18.1 - 10.5 61 4.2 - - - - - - - 0.0
19/07:30am 16.6 - 11.3 71 2.9 - - - - - - - 0.0
19/07:00am 16.4 - 11.3 72 2.8 - - - - - - - 0.0
19/06:30am 15.0 - 11.6 80 1.9 - - - - - - - 0.0
19/06:00am 13.4 - 11.8 90 0.9 - - - - - - - 0.0
19/05:30am 12.6 - 11.0 90 0.9 - - - - - - - 0.0
19/05:00am 12.8 - 11.0 89 1.0 - - - - - - - 0.0
19/04:30am 13.1 - 11.2 88 1.0 - - - - - - - 0.0
19/04:00am 13.2 - 11.1 87 1.1 - - - - - - - 0.0
19/03:30am 13.7 - 11.4 86 1.3 - - - - - - - 0.0
19/03:00am 13.6 - 10.9 84 1.5 - - - - - - - 0.0
19/02:30am 13.5 - 10.7 83 1.5 - - - - - - - 0.0
19/02:00am 13.6 - 10.6 82 1.6 - - - - - - - 0.0
19/01:30am 14.1 - 11.1 82 1.6 - - - - - - - 0.0
19/01:00am 13.9 - 11.2 84 1.5 - - - - - - - 0.0
19/12:30am 13.1 - 10.5 84 1.4 - - - - - - - 0.0
19/12:00am 13.5 - 10.9 84 1.4 - - - - - - - 0.0
 
Date/Time
EST
Tmp

°C
App
Tmp
°C
Dew
Point
°C
Rel
Hum
%
Delta-T

°C
Wind Press
QNH
hPa
Press
MSL
hPa
Rain
since
9 am
mm
Dir
 
Spd
km/h
Gust
km/h
Spd
kts
Gust
kts
18/11:30pm 13.9 - 10.5 80 1.8 - - - - - - - 0.0
18/11:00pm 14.4 - 10.8 79 2.0 - - - - - - - 0.0
18/10:30pm 14.1 - 10.7 80 1.8 - - - - - - - 0.0
18/10:00pm 14.4 - 10.8 79 2.0 - - - - - - - 0.0
18/09:30pm 14.6 - 11.2 80 1.9 - - - - - - - 0.0
18/09:00pm 14.7 - 11.1 79 2.0 - - - - - - - 0.0
18/08:30pm 15.1 - 11.1 77 2.2 - - - - - - - 0.0
18/08:00pm 15.5 - 11.1 75 2.4 - - - - - - - 0.0
18/07:30pm 15.8 - 11.4 75 2.4 - - - - - - - 0.0
18/07:00pm 16.2 - 10.9 71 2.9 - - - - - - - 0.0
18/06:30pm 16.6 - 10.7 68 3.2 - - - - - - - 0.0
18/06:00pm 17.5 - 10.6 64 3.8 - - - - - - - 0.0
18/05:30pm 18.2 - 9.8 58 4.6 - - - - - - - 0.0
18/05:00pm 19.0 - 10.0 56 4.9 - - - - - - - 0.0
18/04:30pm 19.5 - 9.4 52 5.5 - - - - - - - 0.0
18/04:00pm 20.6 - 8.9 47 6.3 - - - - - - - 0.0
18/03:30pm 21.0 - 7.6 42 7.1 - - - - - - - 0.0
18/03:00pm 22.1 - 8.2 41 7.5 - - - - - - - 0.0
18/02:30pm 22.2 - 8.0 40 7.6 - - - - - - - 0.0
18/02:00pm 21.7 - 6.0 36 8.1 - - - - - - - 0.0
18/01:30pm 21.5 - 7.0 39 7.6 - - - - - - - 0.0
18/01:00pm 22.5 - 6.7 36 8.3 - - - - - - - 0.0
18/12:30pm 22.7 - 7.7 38 8.0 - - - - - - - 0.0
18/12:00pm 21.4 - 7.6 41 7.3 - - - - - - - 0.0
18/11:30am 21.1 - 9.0 46 6.6 - - - - - - - 0.0
18/11:00am 20.6 - 8.6 46 6.5 - - - - - - - 0.0
18/10:30am 20.0 - 9.0 49 5.9 - - - - - - - 0.0
18/10:00am 20.2 - 9.7 51 5.8 - - - - - - - 0.0
18/09:30am 20.2 - 11.4 57 5.0 - - - - - - - 0.0
18/09:00am 19.3 - 11.3 60 4.5 - - - - - - - 0.2
18/08:30am 17.1 - 11.4 69 3.2 - - - - - - - 0.2
18/08:00am 16.3 - 11.0 71 2.9 - - - - - - - 0.2
18/07:30am 15.6 - 11.2 75 2.4 - - - - - - - 0.2
18/07:00am 15.8 - 11.2 74 2.5 - - - - - - - 0.2
18/06:30am 14.7 - 11.1 79 2.0 - - - - - - - 0.2
18/06:00am 13.3 - 11.2 87 1.1 - - - - - - - 0.2
18/05:30am 12.8 - 10.9 88 1.0 - - - - - - - 0.2
18/05:00am 13.3 - 11.4 88 1.0 - - - - - - - 0.2
18/04:30am 13.6 - 11.5 87 1.1 - - - - - - - 0.2
18/04:00am 14.1 - 11.8 86 1.3 - - - - - - - 0.2
18/03:30am 14.5 - 12.0 85 1.4 - - - - - - - 0.2
18/03:00am 14.5 - 12.4 87 1.2 - - - - - - - 0.2
18/02:30am 14.5 - 12.7 89 1.0 - - - - - - - 0.2
18/02:00am 14.4 - 12.8 90 0.9 - - - - - - - 0.2
18/01:30am 14.5 - 12.7 89 1.0 - - - - - - - 0.2
18/01:00am 14.6 - 12.6 88 1.1 - - - - - - - 0.2
18/12:30am 14.7 - 13.4 92 0.7 - - - - - - - 0.0
18/12:00am 13.9 - 12.3 90 0.9 - - - - - - - 0.0
 
Date/Time
EST
Tmp

°C
App
Tmp
°C
Dew
Point
°C
Rel
Hum
%
Delta-T

°C
Wind Press
QNH
hPa
Press
MSL
hPa
Rain
since
9 am
mm
Dir
 
Spd
km/h
Gust
km/h
Spd
kts
Gust
kts
17/11:30pm 14.3 - 12.3 88 1.1 - - - - - - - 0.0
17/11:00pm 14.7 - 12.7 88 1.1 - - - - - - - 0.0
17/10:30pm 14.7 - 12.4 86 1.3 - - - - - - - 0.0
17/10:00pm 15.3 - 12.6 84 1.5 - - - - - - - 0.0
17/09:30pm 15.9 - 13.2 84 1.5 - - - - - - - 0.0
17/09:00pm 16.3 - 13.4 83 1.7 - - - - - - - 0.0
17/08:30pm 16.5 - 13.2 81 1.9 - - - - - - - 0.0
17/08:00pm 16.9 - 13.0 78 2.2 - - - - - - - 0.0
17/07:30pm 17.3 - 13.0 76 2.5 - - - - - - - 0.0
17/07:00pm 18.0 - 12.2 69 3.3 - - - - - - - 0.0
17/06:30pm 18.7 - 11.5 63 4.0 - - - - - - - 0.0
17/06:00pm 19.5 - 11.3 59 4.6 - - - - - - - 0.0
17/05:30pm 20.4 - 11.1 55 5.2 - - - - - - - 0.0
17/05:00pm 21.6 - 11.0 51 6.0 - - - - - - - 0.0
17/04:30pm 24.7 - 0.9 21 11.4 - - - - - - - 0.0
17/04:00pm 25.2 - 1.3 21 11.6 - - - - - - - 0.0
17/03:30pm 25.5 - 1.6 21 11.7 - - - - - - - 0.0
17/03:00pm 25.6 - 1.7 21 11.7 - - - - - - - 0.0
17/02:30pm 24.2 - 1.2 22 11.0 - - - - - - - 0.0

Latest Capital City Observations: Canberra | Sydney | Melbourne | Brisbane | Adelaide | Perth | Hobart | Darwin

Other Formats:

Comma delimited format used in spreadsheet applications
http://www.bom.gov.au/fwo/IDQ60901/IDQ60901.94557.axf

JavaScript Object Notation format (JSON) in row-major order
http://www.bom.gov.au/fwo/IDQ60901/IDQ60901.94557.json